Nearby METAR Reports

 

KFIN - Palm Coast, Florida, USA
Distance from station: ENE 9mi, 15km
Updated: Wed, 27-May-2020 5:15am EDT
Fog, Overcast
Fog, Overcast
 Wind from SW
Wind: SW 5 mph , 7 km/h
Temperature: 72°F , 22°C
Dew Point: 72°F , 22°C
Humidity: 100%
Barometer: 29.90 inHg , 1012.5 hPa
Summary: Fog
Clouds: Overcast
Visibility: 1/4 mile , 0.4 km
Cloud details: Overcast 200 ft
2020/05/27 09:15 KFIN 270915Z AUTO 22004KT 1/4SM FG OVC002 22/22 A2990 RMK AO2 T02200216
KOMN - Ormond Beach Vor, Florida, USA
Distance from station: ESE 17mi, 27km
Updated: Tue, 26-May-2020 6:50pm EDT
NOT Current
Mist, Partly cloudy
Mist, Partly cloudy
 Wind from NE
Wind: NE 6 mph , 9 km/h
Temperature: 77°F , 25°C
Dew Point: 73°F , 23°C
Humidity: 89%
Barometer: 29.85 inHg , 1010.8 hPa
Summary: Mist
Clouds: Partly cloudy
Visibility: 5 miles , 8 km
Cloud details: Partly cloudy 1100 ft
Partly cloudy 8000 ft
2020/05/26 22:50 KOMN 262250Z 04005KT 5SM BR SCT011 SCT080 25/23 A2985 RMK LAST
 
KDAB - Daytona Beach, Florida, USA
Distance from station: SE 24mi, 39km
Updated: Wed, 27-May-2020 4:53am EDT
Mist, Mostly cloudy
Mist, Mostly cloudy
 Wind from SSW
Wind: SSW 7 mph , 11 km/h
Temperature: 73°F , 23°C
Dew Point: 73°F , 23°C
Humidity: 100%
Barometer: 29.89 inHg , 1012.2 hPa
Summary: Mist
Clouds: Mostly cloudy
Visibility: 1 mile , 2 km
Cloud details: Mostly cloudy 200 ft
2020/05/27 08:53 KDAB 270853Z 20006KT 1SM BR BKN002 23/23 A2989 RMK AO2 SLP122 T02280228 53007 RVRNO
KDED - Deland, Florida, USA
Distance from station: S 26mi, 41km
Updated: Wed, 27-May-2020 5:15am EDT
Fog
Fog
 
Barometer: 29.91 inHg , 1012.9 hPa
Summary: Fog
Visibility: 1/4 mile , 0.4 km
2020/05/27 09:15 KDED 270915Z AUTO 1/4SM FG A2991 RMK AO2 P0001
 
KEVB - New Smyrna Beach, Florida, USA
Distance from station: SE 36mi, 58km
Updated: Tue, 26-May-2020 9:50pm EDT
NOT Current
Partly cloudy
Partly cloudy
 Wind from calm
Wind: Calm
Temperature: 75°F , 24°C
Dew Point: 73°F , 23°C
Humidity: 94%
Barometer: 29.88 inHg , 1011.9 hPa
Clouds: Partly cloudy
Visibility: 10 miles , 16 km
Cloud details: Partly cloudy 1500 ft
2020/05/27 01:50 KEVB 270150Z 00000KT 10SM SCT015 24/23 A2988 RMK LAST
KSGJ - St Augustine, Florida, USA
Distance from station: N 37mi, 60km
Updated: Wed, 27-May-2020 5:15am EDT
Mist
Mist
 Wind from WSW
Wind: WSW 5 mph , 7 km/h
Temperature: 73°F , 23°C
Dew Point: 73°F , 23°C
Humidity: 100%
Barometer: 29.89 inHg , 1012.2 hPa
Summary: Mist
Visibility: 3 miles , 5 km
2020/05/27 09:15 KSGJ 270915Z AUTO 25004KT 3SM BR 23/23 A2989 RMK AO2 $
 
KSFB - Sanford/Orlando, Florida, USA
Distance from station: S 47mi, 75km
Updated: Wed, 27-May-2020 4:53am EDT
Clear
Clear
 Wind from S
Wind: S 3 mph , 6 km/h
Temperature: 75°F , 24°C
Dew Point: 72°F , 22°C
Humidity: 89%
Barometer: 29.91 inHg , 1012.9 hPa
Clouds: Clear
Visibility: 10 miles , 16 km
2020/05/27 08:53 KSFB 270853Z AUTO 19003KT 10SM CLR 24/22 A2991 RMK AO2 SLP126 T02390222 53005
KVVG - The Villages, Florida, USA
Distance from station: SW 50mi, 80km
Updated: Wed, 14-Feb-2018 2:10pm EST
NOT Current

 Wind from calm
Wind: Calm
Temperature: 73°F , 23°C
Dew Point: 66°F , 19°C
Humidity: 78%
Barometer: 30.29 inHg , 1025.7 hPa
Visibility: 10 miles , 16 km
2018/02/14 19:10 KVVG 141910Z AUTO 00000KT 10SM 23/19 A3029 RMK A01